createdAt,value
2023-02-06T00:01:47.646Z,4.10
2023-02-06T00:04:15.727Z,4.20
2023-02-06T00:06:43.838Z,4.20
2023-02-06T00:09:11.758Z,4.20
2023-02-06T00:11:39.819Z,4.30
2023-02-06T00:14:07.581Z,4.30
2023-02-06T00:16:37.151Z,4.30
2023-02-06T00:19:05.161Z,4.20
2023-02-06T00:21:32.753Z,3.90
2023-02-06T00:24:01.743Z,3.80
2023-02-06T00:26:31.414Z,3.80
2023-02-06T00:28:58.984Z,3.90
2023-02-06T00:31:26.474Z,4.00
2023-02-06T00:33:54.023Z,4.00
2023-02-06T00:36:21.495Z,3.90
2023-02-06T00:38:49.117Z,3.90
2023-02-06T00:41:16.669Z,3.80
2023-02-06T00:43:44.380Z,3.80
2023-02-06T00:46:12.158Z,3.90
2023-02-06T00:48:39.783Z,3.90
2023-02-06T00:51:07.333Z,4.00
2023-02-06T00:53:37.989Z,3.90
2023-02-06T00:56:05.755Z,3.80
2023-02-06T00:58:33.370Z,3.90
2023-02-06T01:01:00.868Z,3.80
2023-02-06T01:03:28.415Z,3.70
2023-02-06T01:05:55.954Z,3.80
2023-02-06T01:08:23.517Z,3.70
2023-02-06T01:10:51.996Z,3.60
2023-02-06T01:13:19.578Z,3.60
2023-02-06T01:15:48.408Z,3.60
2023-02-06T01:18:17.058Z,3.60
2023-02-06T01:20:44.577Z,3.60
2023-02-06T01:23:12.136Z,3.60
2023-02-06T01:25:39.631Z,3.50
2023-02-06T01:28:07.126Z,3.30
2023-02-06T01:30:34.929Z,3.40
2023-02-06T01:33:02.473Z,3.50
2023-02-06T01:35:29.926Z,3.60
2023-02-06T01:37:57.398Z,3.50
2023-02-06T01:40:25.053Z,3.40
2023-02-06T01:42:52.607Z,3.40
2023-02-06T01:45:26.060Z,3.50
2023-02-06T01:48:01.695Z,3.40
2023-02-06T01:50:33.508Z,3.50
2023-02-06T01:53:03.428Z,3.50
2023-02-06T01:55:31.085Z,3.50
2023-02-06T01:58:01.218Z,3.60
2023-02-06T02:00:28.916Z,3.60
2023-02-06T02:02:56.425Z,3.60
2023-02-06T02:05:23.983Z,3.50
2023-02-06T02:08:02.776Z,3.40
2023-02-06T02:10:31.644Z,3.50
2023-02-06T02:12:59.181Z,3.40
2023-02-06T02:15:55.145Z,3.40
2023-02-06T02:18:45.887Z,3.40
2023-02-06T02:21:40.425Z,3.40
2023-02-06T02:24:19.905Z,3.30
2023-02-06T02:27:28.456Z,3.30
2023-02-06T02:30:17.465Z,3.30
2023-02-06T02:33:21.016Z,3.40
2023-02-06T02:36:03.875Z,3.20
2023-02-06T02:38:43.427Z,3.10
2023-02-06T02:41:41.748Z,3.10
2023-02-06T02:44:15.382Z,3.20
2023-02-06T02:46:50.401Z,3.20
2023-02-06T02:49:23.917Z,3.20
2023-02-06T02:51:52.155Z,3.20
2023-02-06T02:54:19.813Z,3.20
2023-02-06T02:56:47.741Z,3.20
2023-02-06T02:59:19.350Z,3.10
2023-02-06T03:02:14.799Z,3.20
2023-02-06T03:04:48.042Z,3.10
2023-02-06T03:07:34.144Z,3.10
2023-02-06T03:10:01.687Z,3.00
2023-02-06T03:12:55.789Z,3.10
2023-02-06T03:15:23.333Z,3.00
2023-02-06T03:18:01.454Z,3.00
2023-02-06T03:20:31.813Z,2.90
2023-02-06T03:23:00.873Z,2.90
2023-02-06T03:25:36.808Z,2.80
2023-02-06T03:28:08.194Z,2.70
2023-02-06T03:30:36.502Z,2.70
2023-02-06T03:33:07.502Z,2.60
2023-02-06T03:35:37.476Z,2.70
2023-02-06T03:38:08.168Z,2.70
2023-02-06T03:40:36.410Z,2.70
2023-02-06T03:43:05.741Z,2.80
2023-02-06T03:45:45.518Z,2.80
2023-02-06T03:48:24.585Z,2.70
2023-02-06T03:50:55.290Z,2.80
2023-02-06T03:53:26.342Z,2.70
2023-02-06T03:55:59.322Z,2.60
2023-02-06T03:58:26.984Z,2.70
2023-02-06T04:00:54.563Z,2.80
2023-02-06T04:03:22.968Z,2.80
2023-02-06T04:05:50.413Z,2.90
2023-02-06T04:08:17.938Z,2.90
2023-02-06T04:10:45.346Z,2.80
2023-02-06T04:13:12.873Z,2.90
2023-02-06T04:15:40.256Z,3.00
2023-02-06T04:18:07.800Z,3.00
2023-02-06T04:20:40.818Z,3.00
2023-02-06T04:23:09.223Z,3.10
2023-02-06T04:25:36.961Z,3.10
2023-02-06T04:28:04.942Z,3.10
2023-02-06T04:30:32.537Z,3.00
2023-02-06T04:33:00.013Z,3.00
2023-02-06T04:35:27.645Z,2.90
2023-02-06T04:37:55.457Z,2.90
2023-02-06T04:40:23.088Z,2.80
2023-02-06T04:42:50.547Z,2.90
2023-02-06T04:45:18.188Z,2.90
2023-02-06T04:47:49.411Z,3.00
2023-02-06T04:50:18.325Z,2.90
2023-02-06T04:52:46.089Z,3.00
2023-02-06T04:55:13.580Z,3.00
2023-02-06T04:57:42.616Z,3.10
2023-02-06T05:00:10.763Z,3.00
2023-02-06T05:02:39.812Z,3.00
2023-02-06T05:05:08.920Z,3.00
2023-02-06T05:07:36.683Z,3.00
2023-02-06T05:10:05.693Z,3.00
2023-02-06T05:12:33.147Z,3.00
2023-02-06T05:15:00.665Z,3.10
2023-02-06T05:17:28.084Z,3.10
2023-02-06T05:19:58.164Z,3.00
2023-02-06T05:22:26.334Z,3.00
2023-02-06T05:24:53.830Z,3.00
2023-02-06T05:27:21.571Z,2.90
2023-02-06T05:29:49.046Z,3.00
2023-02-06T05:32:18.206Z,3.00
2023-02-06T05:34:46.152Z,3.10
2023-02-06T05:37:13.636Z,3.00
2023-02-06T05:39:41.062Z,3.00
2023-02-06T05:42:08.536Z,3.00
2023-02-06T05:44:35.981Z,3.00
2023-02-06T05:47:03.652Z,3.00
2023-02-06T05:49:31.144Z,3.10
2023-02-06T05:51:58.607Z,3.10
2023-02-06T05:54:26.113Z,3.10
2023-02-06T05:56:53.612Z,3.10
2023-02-06T05:59:21.031Z,3.00
2023-02-06T06:01:49.769Z,3.00
2023-02-06T06:04:17.359Z,2.90
2023-02-06T06:06:44.891Z,3.00
2023-02-06T06:09:12.500Z,3.10
2023-02-06T06:11:40.082Z,3.10
2023-02-06T06:14:07.678Z,3.00
2023-02-06T06:16:35.229Z,3.00
2023-02-06T06:19:03.095Z,2.80
2023-02-06T06:21:30.705Z,2.80
2023-02-06T06:23:58.167Z,2.90
2023-02-06T06:26:26.912Z,3.00
2023-02-06T06:28:54.357Z,3.00
2023-02-06T06:31:21.976Z,3.00
2023-02-06T06:33:49.585Z,3.00
2023-02-06T06:36:17.169Z,2.90
2023-02-06T06:38:44.565Z,3.00
2023-02-06T06:41:12.098Z,3.00
2023-02-06T06:43:39.730Z,3.20
2023-02-06T06:46:07.258Z,3.20
2023-02-06T06:48:36.600Z,3.10
2023-02-06T06:51:05.523Z,3.20
2023-02-06T06:53:33.034Z,3.20
2023-02-06T06:56:05.312Z,3.10
2023-02-06T06:58:32.893Z,3.00
2023-02-06T07:01:00.400Z,3.10
2023-02-06T07:03:28.063Z,3.00
2023-02-06T07:05:55.561Z,3.10
2023-02-06T07:08:23.231Z,2.90
2023-02-06T07:10:50.775Z,3.00
2023-02-06T07:13:18.882Z,2.80
2023-02-06T07:15:46.414Z,2.90
2023-02-06T07:18:13.876Z,3.00
2023-02-06T07:20:41.378Z,2.80
2023-02-06T07:23:08.784Z,2.90
2023-02-06T07:25:36.762Z,2.60
2023-02-06T07:28:04.626Z,2.90
2023-02-06T07:30:32.265Z,2.80
2023-02-06T07:32:59.938Z,2.90
2023-02-06T07:35:27.514Z,2.80
2023-02-06T07:37:55.248Z,2.90
2023-02-06T07:40:25.098Z,2.70
2023-02-06T07:42:52.654Z,2.80
2023-02-06T07:45:26.089Z,2.60
2023-02-06T07:47:53.785Z,2.70
2023-02-06T07:50:21.229Z,2.70
2023-02-06T07:52:48.714Z,2.60
2023-02-06T07:55:16.474Z,2.70
2023-02-06T07:57:45.172Z,2.80
2023-02-06T08:00:13.353Z,2.70
2023-02-06T08:02:40.904Z,2.80
2023-02-06T08:05:09.082Z,2.60
2023-02-06T08:07:36.817Z,2.70
2023-02-06T08:10:04.688Z,2.50
2023-02-06T08:12:32.623Z,2.60
2023-02-06T08:15:00.091Z,2.80
2023-02-06T08:17:28.087Z,2.70
2023-02-06T08:19:55.650Z,2.70
2023-02-06T08:22:23.238Z,2.60
2023-02-06T08:24:50.690Z,2.80
2023-02-06T08:27:18.208Z,2.70
2023-02-06T08:29:45.798Z,2.90
2023-02-06T08:32:13.298Z,2.80
2023-02-06T08:34:40.948Z,2.90
2023-02-06T08:37:08.483Z,2.80
2023-02-06T08:39:36.169Z,2.90
2023-02-06T08:42:03.881Z,3.00
2023-02-06T08:44:31.377Z,3.10
2023-02-06T08:47:09.154Z,3.30
2023-02-06T08:49:37.436Z,3.30
2023-02-06T08:52:05.801Z,3.40
2023-02-06T08:54:38.622Z,3.40
2023-02-06T08:57:06.909Z,3.50
2023-02-06T08:59:35.007Z,3.40
2023-02-06T09:02:02.623Z,3.60
2023-02-06T09:04:37.410Z,3.50
2023-02-06T09:07:04.927Z,3.60
2023-02-06T09:09:32.455Z,3.70
2023-02-06T09:12:03.879Z,3.70
2023-02-06T09:14:31.965Z,3.70
2023-02-06T09:16:59.516Z,3.80
2023-02-06T09:19:27.328Z,3.70
2023-02-06T09:21:54.902Z,3.90
2023-02-06T09:24:22.683Z,3.90
2023-02-06T09:26:59.334Z,3.90
2023-02-06T09:29:29.535Z,4.10
2023-02-06T09:31:57.635Z,4.30
2023-02-06T09:34:26.437Z,4.50
2023-02-06T09:36:54.732Z,4.60
2023-02-06T09:39:22.648Z,4.70
2023-02-06T09:41:54.185Z,4.70
2023-02-06T09:44:24.460Z,4.90
2023-02-06T09:47:09.330Z,5.00
2023-02-06T09:50:02.931Z,5.10
2023-02-06T09:52:55.251Z,5.30
2023-02-06T09:55:34.900Z,5.30
2023-02-06T09:58:07.296Z,5.40
2023-02-06T10:00:42.994Z,5.40
2023-02-06T10:03:35.231Z,5.50
2023-02-06T10:06:27.995Z,5.60
2023-02-06T10:09:06.451Z,5.70
2023-02-06T10:12:00.875Z,5.70
2023-02-06T10:14:39.664Z,5.70
2023-02-06T10:17:15.790Z,5.90
2023-02-06T10:20:03.471Z,6.00
2023-02-06T10:23:16.748Z,6.00
2023-02-06T10:26:03.894Z,6.00
2023-02-06T10:28:33.474Z,6.10
2023-02-06T10:31:36.704Z,6.20
2023-02-06T10:34:28.434Z,6.20
2023-02-06T10:37:10.761Z,6.30
2023-02-06T10:40:02.373Z,6.30
2023-02-06T10:43:00.217Z,6.30
2023-02-06T10:45:39.878Z,6.50
2023-02-06T10:48:18.811Z,6.50
2023-02-06T10:50:58.678Z,6.50
2023-02-06T10:53:32.105Z,6.50
2023-02-06T10:56:01.626Z,6.60
2023-02-06T10:58:39.924Z,6.70
2023-02-06T11:01:24.731Z,6.60
2023-02-06T11:04:03.653Z,6.80
2023-02-06T11:06:32.105Z,6.80
2023-02-06T11:08:59.750Z,6.80
2023-02-06T11:11:36.215Z,6.90
2023-02-06T11:14:25.256Z,7.00
2023-02-06T11:16:53.505Z,7.00
2023-02-06T11:19:27.371Z,7.10
2023-02-06T11:22:12.145Z,7.00
2023-02-06T11:25:02.658Z,7.10
2023-02-06T11:27:31.240Z,7.20
2023-02-06T11:30:03.214Z,7.30
2023-02-06T11:32:52.804Z,7.40
2023-02-06T11:35:59.085Z,7.60
2023-02-06T11:38:29.569Z,7.70
2023-02-06T11:41:06.610Z,7.80
2023-02-06T11:43:43.319Z,7.90
2023-02-06T11:46:15.699Z,8.00
2023-02-06T11:49:20.393Z,8.10
2023-02-06T11:52:03.835Z,8.20
2023-02-06T11:54:35.130Z,8.40
2023-02-06T11:57:21.075Z,8.40
2023-02-06T11:59:57.564Z,8.40
2023-02-06T12:02:29.289Z,8.50
2023-02-06T12:05:20.208Z,8.50
2023-02-06T12:08:00.276Z,8.60
2023-02-06T12:10:29.631Z,8.60
2023-02-06T12:13:10.332Z,8.60
2023-02-06T12:15:48.287Z,8.70
2023-02-06T12:18:49.728Z,8.70
2023-02-06T12:21:24.474Z,8.70
2023-02-06T12:24:23.297Z,8.80
2023-02-06T12:26:52.676Z,8.90
2023-02-06T12:29:32.456Z,9.00
2023-02-06T12:32:16.261Z,9.10
2023-02-06T12:35:00.334Z,9.10
2023-02-06T12:37:39.623Z,9.10
2023-02-06T12:40:20.099Z,9.20
2023-02-06T12:43:01.621Z,9.30
2023-02-06T12:45:44.447Z,9.40
2023-02-06T12:48:36.947Z,9.50
2023-02-06T12:51:16.411Z,9.50
2023-02-06T12:53:52.549Z,9.60
2023-02-06T12:56:44.410Z,9.70
2023-02-06T12:59:26.416Z,9.60
2023-02-06T13:02:16.874Z,9.60
2023-02-06T13:04:46.887Z,9.60
2023-02-06T13:07:17.942Z,9.50
2023-02-06T13:10:06.500Z,9.50
2023-02-06T13:12:34.654Z,9.50
2023-02-06T13:15:05.743Z,9.50
2023-02-06T13:17:37.393Z,9.50
2023-02-06T13:20:09.962Z,9.40
2023-02-06T13:22:46.837Z,9.40
2023-02-06T13:25:40.680Z,9.40
2023-02-06T13:28:24.880Z,9.40
2023-02-06T13:31:04.360Z,9.30
2023-02-06T13:33:42.149Z,9.30
2023-02-06T13:36:18.533Z,9.20
2023-02-06T13:38:46.149Z,9.20
2023-02-06T13:41:16.790Z,9.20
2023-02-06T13:44:11.854Z,9.10
2023-02-06T13:47:08.423Z,9.10
2023-02-06T13:50:05.790Z,9.00
2023-02-06T13:53:06.936Z,9.00
2023-02-06T13:55:58.402Z,9.00
2023-02-06T13:58:39.274Z,8.90
2023-02-06T14:01:17.728Z,8.80
2023-02-06T14:03:49.085Z,8.80
2023-02-06T14:06:24.549Z,8.70
2023-02-06T14:09:30.784Z,8.70
2023-02-06T14:12:39.353Z,8.70
2023-02-06T14:15:12.924Z,8.70
2023-02-06T14:18:15.596Z,8.70
2023-02-06T14:21:05.023Z,8.70
2023-02-06T14:23:57.039Z,8.70
2023-02-06T14:26:30.400Z,8.70
2023-02-06T14:29:29.921Z,8.60
2023-02-06T14:32:22.752Z,8.60
2023-02-06T14:35:16.586Z,8.60
2023-02-06T14:38:02.463Z,8.50
2023-02-06T14:40:34.678Z,8.50
2023-02-06T14:43:05.481Z,8.50
2023-02-06T14:45:42.025Z,8.40
2023-02-06T14:48:29.012Z,8.40
2023-02-06T14:50:57.773Z,8.40
2023-02-06T14:53:39.970Z,8.30
2023-02-06T14:56:08.958Z,8.30
2023-02-06T14:58:36.603Z,8.30
2023-02-06T15:01:26.583Z,8.30
2023-02-06T15:04:10.413Z,8.20
2023-02-06T15:06:40.952Z,8.10
2023-02-06T15:09:21.788Z,8.20
2023-02-06T15:11:56.472Z,8.10
2023-02-06T15:14:30.500Z,8.10
2023-02-06T15:17:00.233Z,8.10
2023-02-06T15:19:30.375Z,8.10
2023-02-06T15:22:13.409Z,8.00
2023-02-06T15:24:56.080Z,8.00
2023-02-06T15:27:26.584Z,8.00
2023-02-06T15:29:54.905Z,8.00
2023-02-06T15:32:34.759Z,7.90
2023-02-06T15:35:03.731Z,7.90
2023-02-06T15:37:34.312Z,7.90
2023-02-06T15:40:08.673Z,7.90
2023-02-06T15:42:37.149Z,7.90
2023-02-06T15:45:05.443Z,7.80
2023-02-06T15:47:33.223Z,7.90
2023-02-06T15:50:00.784Z,7.90
2023-02-06T15:52:39.586Z,7.80
2023-02-06T15:55:07.290Z,7.80
2023-02-06T15:57:40.698Z,7.70
2023-02-06T16:00:27.375Z,7.70
2023-02-06T16:02:59.209Z,7.70
2023-02-06T16:05:43.164Z,7.70
2023-02-06T16:08:17.978Z,7.60
2023-02-06T16:10:54.035Z,7.60
2023-02-06T16:13:24.922Z,7.60
2023-02-06T16:16:19.338Z,7.60
2023-02-06T16:18:48.008Z,7.50
2023-02-06T16:21:18.616Z,7.50
2023-02-06T16:23:54.560Z,7.50
2023-02-06T16:26:23.683Z,7.50
2023-02-06T16:29:03.201Z,7.50
2023-02-06T16:31:34.619Z,7.50
2023-02-06T16:34:05.404Z,7.50
2023-02-06T16:36:33.612Z,7.50
2023-02-06T16:39:04.319Z,7.50
2023-02-06T16:41:37.684Z,7.50
2023-02-06T16:44:10.442Z,7.50
2023-02-06T16:46:38.018Z,7.40
2023-02-06T16:49:13.967Z,7.40
2023-02-06T16:51:43.055Z,7.50
2023-02-06T16:54:24.447Z,7.50
2023-02-06T16:56:54.399Z,7.40
2023-02-06T16:59:22.478Z,7.30
2023-02-06T17:01:49.917Z,7.40
2023-02-06T17:04:17.442Z,7.30
2023-02-06T17:06:44.911Z,7.30
2023-02-06T17:09:17.896Z,7.40
2023-02-06T17:11:45.809Z,7.40
2023-02-06T17:14:13.429Z,7.30
2023-02-06T17:16:41.046Z,7.40
2023-02-06T17:19:08.479Z,7.40
2023-02-06T17:21:36.332Z,7.40
2023-02-06T17:24:03.974Z,7.40
2023-02-06T17:26:32.831Z,7.40
2023-02-06T17:29:00.317Z,7.40
2023-02-06T17:31:28.064Z,7.40
2023-02-06T17:33:55.631Z,7.40
2023-02-06T17:36:30.039Z,7.40
2023-02-06T17:39:00.720Z,7.40
2023-02-06T17:41:28.293Z,7.40
2023-02-06T17:43:55.842Z,7.40
2023-02-06T17:46:23.807Z,7.40
2023-02-06T17:48:51.329Z,7.30
2023-02-06T17:51:18.862Z,7.30
2023-02-06T17:53:46.463Z,7.40
2023-02-06T17:56:14.105Z,7.40
2023-02-06T17:58:42.700Z,7.40
2023-02-06T18:01:15.930Z,7.40
2023-02-06T18:03:43.931Z,7.40
2023-02-06T18:06:14.288Z,7.30
2023-02-06T18:08:41.939Z,7.30
2023-02-06T18:11:11.576Z,7.40
2023-02-06T18:13:40.228Z,7.30
2023-02-06T18:16:12.457Z,7.30
2023-02-06T18:18:40.005Z,7.30
2023-02-06T18:21:07.429Z,7.40
2023-02-06T18:23:35.427Z,7.40
2023-02-06T18:26:05.104Z,7.30
2023-02-06T18:28:33.830Z,7.40
2023-02-06T18:31:04.473Z,7.30
2023-02-06T18:33:35.253Z,7.30
2023-02-06T18:36:07.016Z,7.40
2023-02-06T18:38:34.755Z,7.30
2023-02-06T18:41:06.373Z,7.30
2023-02-06T18:43:33.926Z,7.30
2023-02-06T18:46:07.222Z,7.30
2023-02-06T18:48:34.729Z,7.30
2023-02-06T18:51:07.212Z,7.30
2023-02-06T18:53:34.814Z,7.20
2023-02-06T18:56:02.271Z,7.30
2023-02-06T18:58:29.981Z,7.30
2023-02-06T19:00:57.489Z,7.20
2023-02-06T19:03:25.179Z,7.20
2023-02-06T19:05:52.623Z,7.30
2023-02-06T19:08:20.129Z,7.20
2023-02-06T19:10:47.582Z,7.20
2023-02-06T19:13:15.310Z,7.20
2023-02-06T19:15:44.030Z,7.20
2023-02-06T19:18:11.590Z,7.20
2023-02-06T19:20:41.879Z,7.20
2023-02-06T19:23:09.530Z,7.10
2023-02-06T19:25:36.954Z,7.00
2023-02-06T19:28:04.542Z,7.10
2023-02-06T19:30:32.461Z,7.10
2023-02-06T19:33:00.104Z,7.10
2023-02-06T19:35:28.406Z,7.00
2023-02-06T19:37:56.411Z,7.00
2023-02-06T19:40:23.922Z,6.90
2023-02-06T19:42:51.470Z,7.00
2023-02-06T19:45:18.896Z,6.90
2023-02-06T19:47:46.359Z,7.00
2023-02-06T19:50:14.417Z,7.00
2023-02-06T19:52:41.989Z,6.90
2023-02-06T19:55:09.641Z,6.90
2023-02-06T19:57:39.656Z,6.90
2023-02-06T20:00:08.071Z,7.00
2023-02-06T20:02:35.529Z,7.00
2023-02-06T20:05:03.057Z,6.90
2023-02-06T20:07:30.834Z,7.00
2023-02-06T20:09:58.409Z,6.80
2023-02-06T20:12:26.751Z,6.90
2023-02-06T20:14:54.552Z,6.90
2023-02-06T20:17:23.874Z,6.90
2023-02-06T20:19:51.489Z,6.90
2023-02-06T20:22:19.400Z,6.90
2023-02-06T20:24:46.907Z,6.90
2023-02-06T20:27:15.214Z,6.80
2023-02-06T20:29:43.425Z,6.80
2023-02-06T20:32:12.028Z,6.90
2023-02-06T20:34:39.551Z,7.00
2023-02-06T20:37:07.095Z,6.90
2023-02-06T20:39:34.770Z,7.00
2023-02-06T20:42:02.412Z,7.00
2023-02-06T20:44:30.934Z,7.10
2023-02-06T20:46:58.585Z,7.10
2023-02-06T20:49:28.636Z,7.00
2023-02-06T20:51:56.301Z,7.00
2023-02-06T20:54:24.962Z,7.00
2023-02-06T20:56:52.732Z,7.00
2023-02-06T20:59:20.619Z,7.00
2023-02-06T21:01:48.587Z,7.10
2023-02-06T21:04:17.164Z,7.10
2023-02-06T21:06:45.172Z,7.10
2023-02-06T21:09:12.867Z,7.10
2023-02-06T21:11:46.226Z,7.10
2023-02-06T21:14:14.781Z,7.20
2023-02-06T21:16:43.757Z,7.10
2023-02-06T21:19:13.359Z,7.00
2023-02-06T21:21:41.465Z,7.20
2023-02-06T21:24:09.822Z,7.00
2023-02-06T21:26:38.030Z,7.10
2023-02-06T21:29:07.776Z,7.00
2023-02-06T21:31:38.373Z,7.00
2023-02-06T21:34:23.142Z,7.10
2023-02-06T21:36:51.159Z,7.00
2023-02-06T21:39:21.632Z,6.90
2023-02-06T21:41:53.891Z,7.00
2023-02-06T21:44:23.984Z,7.00
2023-02-06T21:46:51.789Z,6.90
2023-02-06T21:49:21.215Z,6.80
2023-02-06T21:51:50.199Z,6.80
2023-02-06T21:54:18.081Z,6.80
2023-02-06T21:56:45.619Z,6.80
2023-02-06T21:59:13.363Z,6.80
2023-02-06T22:01:41.339Z,6.80
2023-02-06T22:04:13.038Z,6.90
2023-02-06T22:06:40.811Z,6.80
2023-02-06T22:09:15.232Z,6.80
2023-02-06T22:11:43.797Z,6.90
2023-02-06T22:14:16.779Z,6.80
2023-02-06T22:16:46.871Z,6.80
2023-02-06T22:19:15.643Z,6.80
2023-02-06T22:21:43.161Z,6.70
2023-02-06T22:24:12.098Z,6.70
2023-02-06T22:26:39.697Z,6.60
2023-02-06T22:29:10.541Z,6.60
2023-02-06T22:31:40.437Z,6.60
2023-02-06T22:34:11.867Z,6.60
2023-02-06T22:36:39.655Z,6.60
2023-02-06T22:39:10.047Z,6.60
2023-02-06T22:41:40.208Z,6.70
2023-02-06T22:44:08.445Z,6.60
2023-02-06T22:46:38.571Z,6.60
2023-02-06T22:49:07.732Z,6.50
2023-02-06T22:51:40.487Z,6.60
2023-02-06T22:54:11.704Z,6.60
2023-02-06T22:56:41.133Z,6.60
2023-02-06T22:59:23.480Z,6.50
2023-02-06T23:01:58.599Z,6.50
2023-02-06T23:04:36.213Z,6.50
2023-02-06T23:07:04.450Z,6.50
2023-02-06T23:09:35.446Z,6.50
2023-02-06T23:12:04.000Z,6.50
2023-02-06T23:14:33.054Z,6.40
2023-02-06T23:17:01.867Z,6.50
2023-02-06T23:19:29.606Z,6.40
2023-02-06T23:21:57.087Z,6.50
2023-02-06T23:24:24.686Z,6.40
2023-02-06T23:26:54.443Z,6.50
2023-02-06T23:29:23.163Z,6.50
2023-02-06T23:31:51.696Z,6.50
2023-02-06T23:34:20.141Z,6.50
2023-02-06T23:36:47.716Z,6.60
2023-02-06T23:39:15.700Z,6.70
2023-02-06T23:41:43.296Z,6.70
2023-02-06T23:44:11.008Z,6.60
2023-02-06T23:46:39.823Z,6.60
2023-02-06T23:49:07.775Z,6.60
2023-02-06T23:51:37.989Z,6.60
2023-02-06T23:54:07.579Z,6.60
2023-02-06T23:56:35.637Z,6.60
2023-02-06T23:59:04.646Z,6.50
